首页
METAR-TAF:

METAR-TAF

机场 :

Livermore Municipal Airport

Livermore, 加利福尼亚州, 美国

纬度: 37-41-34N, 经度: 121-48-52W, 海拔: 121米

当前天气观测

该预报发布于1小时和9分钟前的20:53 UTC
风速4节,风向多变
温度 25°C
湿度 34%
气压 1016 hPa
能見度: 16.1公里
天空无云

METAR: KLVK 262053Z VRB04KT 10SM CLR 25/08 A2999 RMK AO2 SLP153 T02500083 58014

时间: 15:02 (22:02 UTC)

预报

该预报发布于4小时和41分钟前的17:21 UTC
预报有效从26日的 18点(UTC)到 27日的 18点(UTC)
风速4节,风向多变
能見度: 10公里
天空无云
从 26日的 2100点(UTC)
风速12节,风向西转西北
能見度: 10公里
天空无云
从 27日的 0400点(UTC)
风速3节,风向多变
能見度: 10公里
少量云层高于1500英尺

TAF: KLVK 261721Z 2618/2718 VRB04KT P6SM SKC FM262100 29012KT P6SM SKC FM270400 VRB03KT P6SM FEW015

超过4000个机场的气象观测和天气预报(METAR&TAF报告)。

可查询的气象台以黄色和红色小点在地图上表示。

将鼠标移到小点上方,可查看气象台名称。

然后点击查看天气观测和预报。

如需切换地图:点击带黑十字的绿色按钮放大地图;点击带横线的绿色按钮缩小地图;或者点击绿色箭头查看邻近地区的地图。


METAR-TAF: